Nearby METAR Reports

Sorted by Distance from Carson Valley Weather Station - Minden, Nevada

 

KMEV - Minden, Nevada, USA
Distance from station: SSW 3mi, 5km
Updated: Tue, 07-Jul-2020 11:35am PDT
Clear
Clear
 Wind from NW
Wind: NW 6 mph , 9 km/h, Gust: 14 mph , 22 km/h
Temperature: 79°F , 26°C
Dew Point: 18°F , -8°C
Humidity: 10%
Barometer: 30.07 inHg , 1018.3 hPa
Clouds: Clear
Visibility: 10 miles , 16 km
2020/07/07 18:35 KMEV 071835Z AUTO 32005G12KT 10SM CLR 26/M08 A3007 RMK AO2
KCXP - Carson City, Nevada, USA
Distance from station: N 10mi, 16km
Updated: Tue, 07-Jul-2020 11:35am PDT
Clear
Clear
 Wind from calm
Wind: Calm
Temperature: 79°F , 26°C
Dew Point: 10°F , -12°C
Humidity: 7%
Barometer: 30.07 inHg , 1018.3 hPa
Clouds: Clear
Visibility: 10 miles , 16 km
2020/07/07 18:35 KCXP 071835Z AUTO 00000KT 10SM CLR 26/M12 A3007 RMK AO2
 
KTVL - South Lake Tahoe, California, USA
Distance from station: WSW 18mi, 29km
Updated: Tue, 07-Jul-2020 10:53am PDT
Clear
Clear
 Wind from SSW
Wind: SSW 10 mph , 17 km/h, Gust: 17 mph , 28 km/h
Temperature: 72°F , 22°C
Dew Point: 18°F , -8°C
Humidity: 13%
Barometer: 30.15 inHg , 1021 hPa
Clouds: Clear
Visibility: 10 miles , 16 km
2020/07/07 17:53 KTVL 071753Z AUTO 20009G15KT 160V230 10SM CLR 22/M08 A3015 RMK AO2 SLP146 T02171083 10222 20028 53002
KTRK - Truckee Tahoe, California, USA
Distance from station: NW 29mi, 46km
Updated: Tue, 07-Jul-2020 8:50am PDT
NOT Current
Clear
Clear
 Wind from calm
Wind: Calm
Temperature: 55°F , 13°C
Dew Point: 27°F , -3°C
Humidity: 33%
Barometer: 30.16 inHg , 1021.3 hPa
Clouds: Clear
Visibility: 10 miles , 16 km
2020/07/07 15:50 KTRK 071550Z 00000KT 10SM SKC 13/M03 A3016
 
KRNO - Reno, Nevada, USA
Distance from station: N 32mi, 51km
Updated: Tue, 07-Jul-2020 10:55am PDT
Clear
Clear
 Wind from calm
Wind: Calm
Temperature: 75°F , 24°C
Dew Point: 16°F , -9°C
Humidity: 10%
Barometer: 30.06 inHg , 1017.9 hPa
Clouds: Clear
Visibility: 10 miles , 16 km
2020/07/07 17:55 KRNO 071755Z 00000KT 10SM CLR 24/M09 A3006 RMK AO2 SLP127 T02441094 10250 20117 58004
KRTS - Reno/Stead, Nevada, USA
Distance from station: NNW 44mi, 71km
Updated: Tue, 07-Jul-2020 11:35am PDT
Clear
Clear
 Wind from calm
Wind: Calm
Temperature: 75°F , 24°C
Dew Point: 10°F , -12°C
Humidity: 8%
Barometer: 30.09 inHg , 1019 hPa
Clouds: Clear
Visibility: 10 miles , 16 km
2020/07/07 18:35 KRTS 071835Z AUTO 00000KT 10SM CLR 24/M12 A3009 RMK AO2
 
KBAN - Bridgeport(Mcmwt, California, USA
Distance from station: SSE 49mi, 79km
Updated: Tue, 07-Jul-2020 10:52am PDT
Clear
Clear
 Wind from S
Wind: S 12 mph , 19 km/h, Gust: 22 mph , 35 km/h
Temperature: 75°F , 24°C
Dew Point: 7°F , -14°C
Humidity: 7%
Barometer: 30.14 inHg , 1020.7 hPa
Clouds: Clear
Visibility: 10 miles , 16 km
2020/07/07 17:52 KBAN 071752Z AUTO 18010G19KT 10SM CLR 24/M14 A3014 RMK AO2 SLP096 T02391144 10239 20056 55000 $
KBLU - Emigrant Gap, California, USA
Distance from station: WNW 55mi, 89km
Updated: Tue, 07-Jul-2020 10:52am PDT
Clear
Clear
 Wind from S
Wind: S 8 mph , 13 km/h
Temperature: 68°F , 20°C
Dew Point: 27°F , -3°C
Humidity: 21%
Barometer: 30.15 inHg , 1021 hPa
Clouds: Clear
Visibility: 10 miles , 16 km
2020/07/07 17:52 KBLU 071752Z AUTO 19007KT 10SM CLR 20/M03 A3015 RMK AO2 SLP131 T02001028 10200 20139 51010
 
KPVF - Placerville, California, USA
Distance from station: WSW 60mi, 96km
Updated: Sun, 05-Jul-2020 4:15pm PDT
NOT Current

 Wind from W
Wind: W 5 mph , 7 km/h
Temperature: 90°F , 32°C
Dew Point: 36°F , 2°C
Humidity: 15%
Barometer: 30.04 inHg , 1017.3 hPa
Visibility: 10 miles , 16 km
2020/07/05 23:15 KPVF 052315Z AUTO 26004KT 10SM 32/02 A3004 RMK AO1
KNFL - Fallon Nas, Nevada, USA
Distance from station: ENE 61mi, 97km
Updated: Tue, 07-Jul-2020 10:56am PDT
Clear
Clear
 Wind from N
Wind: N 8 mph , 13 km/h
Temperature: 79°F , 26°C
Dew Point: 21°F , -6°C
Humidity: 12%
Barometer: 30.04 inHg , 1017.3 hPa
Clouds: Clear
Visibility: 10 miles , 16 km
2020/07/07 17:56 KNFL 071756Z 36007KT 10SM CLR 26/M06 A3004 RMK AO2 SLP141 T02611056 10261 20083 58001
 
KHTH - Hawthorne, Nevada, USA
Distance from station: ESE 68mi, 109km
Updated: Tue, 07-Jul-2020 11:35am PDT
Clear
Clear
 Wind from varies
Wind: varies 5 mph , 7 km/h, Gust: 14 mph , 22 km/h
Temperature: 79°F , 26°C
Dew Point: 12°F , -11°C
Humidity: 8%
Barometer: 30.04 inHg , 1017.3 hPa
Clouds: Clear
Visibility: 10 miles , 16 km
2020/07/07 18:35 KHTH 071835Z AUTO VRB04G12KT 10SM CLR 26/M11 A3004 RMK A01
KGOO - Grass Valley, California, USA
Distance from station: W 70mi, 112km
Updated: Tue, 07-Jul-2020 11:35am PDT

 Wind from N
Wind: N 0 mph , 0 km/h, Gust: 12 mph , 19 km/h
Temperature: 75°F , 24°C
Dew Point: 36°F , 2°C
Humidity: 24%
Barometer: 30.03 inHg , 1016.9 hPa
Visibility: 10 miles , 16 km
2020/07/07 18:35 KGOO 071835Z AUTO 00000G10KT 10SM 24/02 A3003 RMK A01
 
KAUN - Auburn Muni, California, USA
Distance from station: W 73mi, 118km
Updated: Tue, 07-Jul-2020 11:35am PDT
Clear
Clear
 Wind from varies
Wind: varies 6 mph , 9 km/h
Temperature: 77°F , 25°C
Dew Point: 46°F , 8°C
Humidity: 34%
Barometer: 29.98 inHg , 1015.2 hPa
Clouds: Clear
Visibility: 10 miles , 16 km
2020/07/07 18:35 KAUN 071835Z AUTO VRB05KT 10SM CLR 25/08 A2998 RMK A01
KO22 - Columbia, California, USA
Distance from station: SSW 79mi, 127km
Updated: Tue, 07-Jul-2020 11:35am PDT
Clear
Clear
 Wind from calm
Wind: Calm
Temperature: 82°F , 28°C
Dew Point: 37°F , 3°C
Humidity: 20%
Barometer: 29.99 inHg , 1015.6 hPa
Clouds: Clear
Visibility: 10 miles , 16 km
2020/07/07 18:35 KO22 071835Z AUTO 00000KT 10SM CLR 28/03 A2999 RMK A01
 
KLHM - Lincoln, California, USA
Distance from station: W 88mi, 141km
Updated: Tue, 07-Jul-2020 11:35am PDT
Clear
Clear
 Wind from calm
Wind: Calm
Temperature: 75°F , 24°C
Dew Point: 46°F , 8°C
Humidity: 36%
Barometer: 29.93 inHg , 1013.5 hPa
Clouds: Clear
Visibility: 10 miles , 16 km
2020/07/07 18:35 KLHM 071835Z AUTO 00000KT 10SM CLR 24/08 A2993 RMK AO1
KBAB - Beale Afb/Marysv, California, USA
Distance from station: W 91mi, 147km
Updated: Tue, 07-Jul-2020 10:58am PDT
Clear
Clear
 Wind from NW
Wind: NW 6 mph , 9 km/h
Temperature: 75°F , 24°C
Dew Point: 48°F , 9°C
Humidity: 39%
Barometer: 29.93 inHg , 1013.5 hPa
Clouds: Clear
Visibility: 9 miles , 14 km
2020/07/07 17:58 KBAB 071758Z AUTO 31005KT 9SM CLR 24/09 A2993 RMK AO2 SLP138 T02440088 10244 20128 53001 $
 
KMHR - Mather Field, California, USA
Distance from station: WSW 91mi, 147km
Updated: Tue, 07-Jul-2020 10:45am PDT
Clear
Clear
 Wind from calm
Wind: Calm
Temperature: 72°F , 22°C
Dew Point: 48°F , 9°C
Humidity: 44%
Barometer: 29.94 inHg , 1013.9 hPa
Clouds: Clear
Visibility: 10 miles , 16 km
2020/07/07 17:45 KMHR 071745Z 00000KT 10SM SKC 22/09 A2994
KLOL - Lovelock, Nevada, USA
Distance from station: NE 94mi, 151km
Updated: Tue, 07-Jul-2020 10:53am PDT
Clear
Clear
 Wind from SE
Wind: SE 12 mph , 19 km/h
Temperature: 79°F , 26°C
Dew Point: 34°F , 1°C
Humidity: 20%
Barometer: 30.03 inHg , 1016.9 hPa
Clouds: Clear
Visibility: 10 miles , 16 km
2020/07/07 17:53 KLOL 071753Z AUTO 14010KT 110V180 10SM CLR 26/01 A3003 RMK AO2 SLP129 T02560011 10261 20083 58001
 
KMCC - Mcclellan Afb, California, USA
Distance from station: WSW 94mi, 151km
Updated: Tue, 07-Jul-2020 11:35am PDT
Clear
Clear
 Wind from calm
Wind: Calm
Temperature: 75°F , 24°C
Dew Point: 46°F , 8°C
Humidity: 36%
Barometer: 29.94 inHg , 1013.9 hPa
Clouds: Clear
Visibility: 10 miles , 16 km
2020/07/07 18:35 KMCC 071835Z AUTO 00000KT 10SM CLR 24/08 A2994 RMK AO2
KMYV - Marysville, California, USA
Distance from station: W 99mi, 159km
Updated: Tue, 07-Jul-2020 10:53am PDT
Clear
Clear
 Wind from varies
Wind: varies 5 mph , 7 km/h
Temperature: 75°F , 24°C
Dew Point: 50°F , 10°C
Humidity: 41%
Barometer: 29.95 inHg , 1014.2 hPa
Clouds: Clear
Visibility: 10 miles , 16 km
2020/07/07 17:53 KMYV 071753Z AUTO VRB04KT 10SM CLR 24/10 A2995 RMK AO2 SLP144 T02440100 10244 20117 50001
 
KSVE - Susanville Muni, California, USA
Distance from station: NNW 102mi, 164km
Updated: Tue, 07-Jul-2020 11:35am PDT
Clear
Clear
 Wind from E
Wind: E 8 mph , 13 km/h
Temperature: 73°F , 23°C
Dew Point: 36°F , 2°C
Humidity: 25%
Barometer: 30.07 inHg , 1018.3 hPa
Clouds: Clear
Visibility: 10 miles , 16 km
2020/07/07 18:35 KSVE 071835Z AUTO 10007KT 10SM CLR 23/02 A3007 RMK AO2
KSAC - Sacramento, California, USA
Distance from station: WSW 103mi, 165km
Updated: Tue, 07-Jul-2020 10:53am PDT
Clear
Clear
 Wind from varies
Wind: varies 3 mph , 6 km/h
Temperature: 75°F , 24°C
Dew Point: 48°F , 9°C
Humidity: 39%
Barometer: 29.95 inHg , 1014.2 hPa
Clouds: Clear
Visibility: 10 miles , 16 km
2020/07/07 17:53 KSAC 071753Z VRB03KT 10SM CLR 24/09 A2995 RMK AO2 SLP141 T02390094 10239 20133 50006 $
 
KSMF - Sacramento/Metro, California, USA
Distance from station: WSW 104mi, 167km
Updated: Tue, 07-Jul-2020 10:53am PDT
Clear
Clear
 Wind from varies
Wind: varies 5 mph , 7 km/h
Temperature: 73°F , 23°C
Dew Point: 52°F , 11°C
Humidity: 47%
Barometer: 29.94 inHg , 1013.9 hPa
Clouds: Clear
Visibility: 10 miles , 16 km
2020/07/07 17:53 KSMF 071753Z VRB04KT 10SM CLR 23/11 A2994 RMK AO2 SLP139 T02280106 10233 20122 50005
KOVE - Oroville, California, USA
Distance from station: WNW 106mi, 171km
Updated: Tue, 07-Jul-2020 10:53am PDT
Clear
Clear
 Wind from varies
Wind: varies 5 mph , 7 km/h
Temperature: 73°F , 23°C
Dew Point: 52°F , 11°C
Humidity: 47%
Barometer: 29.96 inHg , 1014.6 hPa
Clouds: Clear
Visibility: 10 miles , 16 km
2020/07/07 17:53 KOVE 071753Z AUTO VRB04KT 10SM CLR 23/11 A2996 RMK AO2 SLP148 T02330111 10233 20156 53001
 
KMMH - Mammoth/June Lak, California, USA
Distance from station: SSE 110mi, 177km
Updated: Tue, 07-Jul-2020 11:36am PDT
Clear
Clear
 Wind from ESE
Wind: ESE 9 mph , 15 km/h
Temperature: 77°F , 25°C
Dew Point: 7°F , -14°C
Humidity: 6%
Barometer: 30.17 inHg , 1021.7 hPa
Clouds: Clear
Visibility: 10 miles , 16 km
2020/07/07 18:36 KMMH 071836Z AUTO 12008KT 10SM CLR 25/M14 A3017 RMK AO2
KSCK - Stockton, California, USA
Distance from station: SW 114mi, 183km
Updated: Tue, 07-Jul-2020 10:55am PDT
Clear
Clear
 Wind from NW
Wind: NW 9 mph , 15 km/h, Gust: 21 mph , 33 km/h
Temperature: 77°F , 25°C
Dew Point: 50°F , 10°C
Humidity: 39%
Barometer: 29.95 inHg , 1014.2 hPa
Clouds: Clear
Visibility: 10 miles , 16 km
2020/07/07 17:55 KSCK 071755Z 31008G18KT 10SM CLR 25/10 A2995 RMK AO2 SLP141 T02500100 10250 20150 51004
 
KEDU - Davis, California, USA
Distance from station: WSW 116mi, 187km
Updated: Tue, 07-Jul-2020 11:35am PDT
Clear
Clear
 Wind from NE
Wind: NE 6 mph , 9 km/h
Temperature: 75°F , 24°C
Dew Point: 46°F , 8°C
Humidity: 36%
Barometer: 29.96 inHg , 1014.6 hPa
Clouds: Clear
Visibility: 10 miles , 16 km
2020/07/07 18:35 KEDU 071835Z AUTO 04005KT 10SM CLR 24/08 A2996 RMK AO1
KMOD - Modesto, California, USA
Distance from station: SW 119mi, 191km
Updated: Tue, 07-Jul-2020 10:53am PDT
Clear
Clear
 Wind from varies
Wind: varies 7 mph , 11 km/h
Temperature: 75°F , 24°C
Dew Point: 46°F , 8°C
Humidity: 36%
Barometer: 29.94 inHg , 1013.9 hPa
Clouds: Clear
Visibility: 10 miles , 16 km
2020/07/07 17:53 KMOD 071753Z VRB06KT 10SM CLR 24/08 A2994 RMK AO2 SLP137 T02390083 10244 20144 51005
 
KMER - Merced/Castle Af, California, USA
Distance from station: SSW 123mi, 198km
Updated: Tue, 07-Jul-2020 11:45am PDT
Clear
Clear
 Wind from WNW
Wind: WNW 7 mph , 11 km/h
Temperature: 82°F , 28°C
Dew Point: 45°F , 7°C
Humidity: 26%
Barometer: 29.94 inHg , 1013.9 hPa
Clouds: Clear
Visibility: 10 miles , 16 km
2020/07/07 18:45 KMER 071845Z 30006KT 10SM SKC 28/07 A2994
KCIC - Chico Municipal, California, USA
Distance from station: WNW 124mi, 199km
Updated: Tue, 07-Jul-2020 9:47am PDT
NOT Current

 Wind from SW
Wind: SW 6 mph , 9 km/h
Temperature: 72°F , 22°C
Dew Point: 46°F , 8°C
Humidity: 41%
Barometer: 29.96 inHg , 1014.6 hPa
2020/07/07 16:47 KCIC 071647Z 23005KT 22/08 A2996
 
KMCE - Merced, California, USA
Distance from station: SSW 128mi, 207km
Updated: Tue, 07-Jul-2020 10:53am PDT
Clear
Clear
 Wind from NNW
Wind: NNW 9 mph , 15 km/h
Temperature: 79°F , 26°C
Dew Point: 46°F , 8°C
Humidity: 32%
Barometer: 29.94 inHg , 1013.9 hPa
Clouds: Clear
Visibility: 10 miles , 16 km
2020/07/07 17:53 KMCE 071753Z AUTO 33008KT 10SM CLR 26/08 A2994 RMK AO2 SLP137 T02560078 10256 20133 50005
KVCB - Vacaville, California, USA
Distance from station: WSW 128mi, 207km
Updated: Tue, 07-Jul-2020 10:53am PDT
Clear
Clear
 Wind from varies
Wind: varies 5 mph , 7 km/h
Temperature: 79°F , 26°C
Dew Point: 48°F , 9°C
Humidity: 34%
Barometer: 29.96 inHg , 1014.6 hPa
Clouds: Clear
Visibility: 10 miles , 16 km
2020/07/07 17:53 KVCB 071753Z AUTO VRB04KT 10SM CLR 26/09 A2996 RMK AO2 SLP144 T02560089 10256 20111 50003
 
KSUU - Travis Afb/Fairf, California, USA
Distance from station: WSW 130mi, 209km
Updated: Tue, 07-Jul-2020 10:58am PDT
Clear
Clear
 Wind from calm
Wind: Calm
Temperature: 81°F , 27°C
Dew Point: 48°F , 9°C
Humidity: 32%
Barometer: 29.96 inHg , 1014.6 hPa
Clouds: Clear
Visibility: 10 miles , 16 km
2020/07/07 17:58 KSUU 071758Z AUTO 00000KT 10SM CLR 27/09 A2996 RMK AO2 SLP152 T02650093 10265 20125 51005 $
KBIH - Bishop, California, USA
Distance from station: SE 137mi, 221km
Updated: Tue, 07-Jul-2020 10:56am PDT
Clear
Clear
 Wind from varies
Wind: varies 5 mph , 7 km/h
Temperature: 88°F , 31°C
Dew Point: 12°F , -11°C
Humidity: 6%
Barometer: 29.96 inHg , 1014.6 hPa
Clouds: Clear
Visibility: 10 miles , 16 km
2020/07/07 17:56 KBIH 071756Z AUTO VRB04KT 10SM CLR 31/M11 A2996 RMK AO2 SLP085 T03111111 10322 20100 58003
 
KMAE - Madera, California, USA
Distance from station: S 144mi, 231km
Updated: Tue, 07-Jul-2020 10:53am PDT
Clear
Clear
 Wind from WNW
Wind: WNW 8 mph , 13 km/h
Temperature: 79°F , 26°C
Dew Point: 46°F , 8°C
Humidity: 32%
Barometer: 29.95 inHg , 1014.2 hPa
Clouds: Clear
Visibility: 10 miles , 16 km
2020/07/07 17:53 KMAE 071753Z AUTO 30007KT 10SM CLR 26/08 A2995 RMK AO2 SLP139 T02610078 10261 20117 50004
KCCR - Concord, California, USA
Distance from station: WSW 145mi, 233km
Updated: Tue, 07-Jul-2020 10:53am PDT
Clear
Clear
 Wind from varies
Wind: varies 3 mph , 6 km/h
Temperature: 75°F , 24°C
Dew Point: 48°F , 9°C
Humidity: 39%
Barometer: 29.96 inHg , 1014.6 hPa
Clouds: Clear
Visibility: 10 miles , 16 km
2020/07/07 17:53 KCCR 071753Z VRB03KT 10SM CLR 24/09 A2996 RMK AO2 SLP132 T02390089 10239 20133 50001
 
KLVK - Livermore, California, USA
Distance from station: SW 146mi, 236km
Updated: Tue, 07-Jul-2020 10:53am PDT
Clear
Clear
 Wind from NW
Wind: NW 5 mph , 7 km/h
Temperature: 72°F , 22°C
Dew Point: 46°F , 8°C
Humidity: 41%
Barometer: 29.97 inHg , 1014.9 hPa
Clouds: Clear
Visibility: 10 miles , 16 km
2020/07/07 17:53 KLVK 071753Z 31004KT 10SM CLR 22/08 A2997 RMK AO2 SLP145 T02220078 10222 20117 50000
KAPC - Napa, California, USA
Distance from station: WSW 150mi, 241km
Updated: Tue, 07-Jul-2020 10:54am PDT
Clear
Clear
 Wind from SSW
Wind: SSW 7 mph , 11 km/h
Temperature: 70°F , 21°C
Dew Point: 52°F , 11°C
Humidity: 53%
Barometer: 29.98 inHg , 1015.2 hPa
Clouds: Clear
Visibility: 10 miles , 16 km
2020/07/07 17:54 KAPC 071754Z 20006KT 10SM CLR 21/11 A2998 RMK AO2 SLP142 T02060106 51003
 
KRBL - Red Bluff, California, USA
Distance from station: WNW 155mi, 249km
Updated: Tue, 07-Jul-2020 10:54am PDT
Clear
Clear
 Wind from N
Wind: N 15 mph , 24 km/h
Temperature: 84°F , 29°C
Dew Point: 39°F , 4°C
Humidity: 20%
Barometer: 29.94 inHg , 1013.9 hPa
Clouds: Clear
Visibility: 10 miles , 16 km
2020/07/07 17:54 KRBL 071754Z AUTO 36013KT 10SM CLR 29/04 A2994 RMK AO2 SLP133 T02940044 10300 20144 56005
KFAT - Fresno, California, USA
Distance from station: S 156mi, 251km
Updated: Tue, 07-Jul-2020 10:53am PDT
Clear
Clear
 Wind from NW
Wind: NW 10 mph , 17 km/h
Temperature: 81°F , 27°C
Dew Point: 45°F , 7°C
Humidity: 28%
Barometer: 29.93 inHg , 1013.5 hPa
Clouds: Clear
Visibility: 10 miles , 16 km
2020/07/07 17:53 KFAT 071753Z 32009KT 10SM CLR 27/07 A2993 RMK AO2 SLP133 MTNS OBSC HZ FU DSNT N-E-S T02670067 10267 20161 50000
 
KTPH - Tonopah, Nevada, USA
Distance from station: ESE 158mi, 254km
Updated: Tue, 07-Jul-2020 10:56am PDT
Clear
Clear
 Wind from WNW
Wind: WNW 14 mph , 22 km/h, Gust: 21 mph , 33 km/h
Temperature: 82°F , 28°C
Dew Point: 3°F , -16°C
Humidity: 5%
Barometer: 30.07 inHg , 1018.3 hPa
Clouds: Clear
Visibility: 10 miles , 16 km
2020/07/07 17:56 KTPH 071756Z AUTO 29012G18KT 10SM CLR 28/M16 A3007 RMK AO2 SLP089 T02781161 10278 20144 50004
KFCH - Fresno Chandler, California, USA
Distance from station: S 161mi, 258km
Updated: Thu, 14-May-2020 3:35am PDT
NOT Current
Few Clouds
Few Clouds
 Wind from NW
Wind: NW 13 mph , 20 km/h
Temperature: 59°F , 15°C
Dew Point: 48°F , 9°C
Humidity: 68%
Barometer: 30.06 inHg , 1017.9 hPa
Clouds: Few Clouds
Visibility: 10 miles , 16 km
Cloud details: Few Clouds 2900 ft
2020/05/14 10:35 KFCH 141035Z AUTO 32011KT 10SM FEW029 15/09 A3006 RMK A01
 
KHWD - Hayward, California, USA
Distance from station: SW 161mi, 259km
Updated: Tue, 07-Jul-2020 10:54am PDT
Clear
Clear
 Wind from varies
Wind: varies 3 mph , 6 km/h
Temperature: 66°F , 19°C
Dew Point: 50°F , 10°C
Humidity: 56%
Barometer: 29.98 inHg , 1015.2 hPa
Clouds: Clear
Visibility: 10 miles , 16 km
2020/07/07 17:54 KHWD 071754Z VRB03KT 10SM CLR 19/10 A2998 RMK AO2 SLP162 T01890100 10194 20133 50002
KOAK - Oakland, California, USA
Distance from station: SW 164mi, 264km
Updated: Tue, 07-Jul-2020 10:53am PDT
Clear
Clear
 Wind from SSW
Wind: SSW 6 mph , 9 km/h
Temperature: 64°F , 18°C
Dew Point: 50°F , 10°C
Humidity: 60%
Barometer: 30.00 inHg , 1015.9 hPa
Clouds: Clear
Visibility: 10 miles , 16 km
2020/07/07 17:53 KOAK 071753Z 21005KT 10SM CLR 18/10 A3000 RMK AO2 SLP158 T01830100 10189 20122 52002
 
KWMC - Winnemucca, Nevada, USA
Distance from station: NE 164mi, 264km
Updated: Tue, 07-Jul-2020 10:56am PDT
Clear
Clear
 Wind from varies
Wind: varies 5 mph , 7 km/h
Temperature: 77°F , 25°C
Dew Point: 34°F , 1°C
Humidity: 21%
Barometer: 30.04 inHg , 1017.3 hPa
Clouds: Clear
Visibility: 10 miles , 16 km
2020/07/07 17:56 KWMC 071756Z AUTO VRB04KT 10SM CLR 25/01 A3004 RMK AO2 SLP121 T02500011 10256 20122 58003
KDVO - Novato/Gnoss Fld, California, USA
Distance from station: WSW 165mi, 265km
Updated: Tue, 07-Jul-2020 11:35am PDT
Clear
Clear
 Wind from varies
Wind: varies 5 mph , 7 km/h
Temperature: 75°F , 24°C
Dew Point: 46°F , 8°C
Humidity: 36%
Barometer: 29.96 inHg , 1014.6 hPa
Clouds: Clear
Visibility: 10 miles , 16 km
2020/07/07 18:35 KDVO 071835Z AUTO VRB04KT 10SM CLR 24/08 A2996 RMK AO2
 
KO69 - Petaluma, California, USA
Distance from station: WSW 165mi, 265km
Updated: Tue, 07-Jul-2020 11:35am PDT
Haze, Clear
Haze, Clear
 Wind from W
Wind: W 7 mph , 11 km/h
Temperature: 77°F , 25°C
Dew Point: 46°F , 8°C
Humidity: 34%
Barometer: 29.97 inHg , 1014.9 hPa
Summary: Haze
Clouds: Clear
Visibility: 3 miles , 5 km
2020/07/07 18:35 KO69 071835Z AUTO 28006KT 3SM HZ CLR 25/08 A2997 RMK A01
KRHV - San Jose/Reid, California, USA
Distance from station: SW 165mi, 265km
Updated: Tue, 07-Jul-2020 10:47am PDT
Clear
Clear
 Wind from N
Wind: N 5 mph , 7 km/h
Temperature: 72°F , 22°C
Dew Point: 45°F , 7°C
Humidity: 38%
Barometer: 29.98 inHg , 1015.2 hPa
Clouds: Clear
Visibility: 10 miles , 16 km
2020/07/07 17:47 KRHV 071747Z 35004KT 10SM SKC 22/07 A2998
 
KSJC - San Jose, California, USA
Distance from station: SW 166mi, 267km
Updated: Tue, 07-Jul-2020 10:53am PDT
Clear
Clear
 Wind from varies
Wind: varies 3 mph , 6 km/h
Temperature: 72°F , 22°C
Dew Point: 45°F , 7°C
Humidity: 38%
Barometer: 29.98 inHg , 1015.2 hPa
Clouds: Clear
Visibility: 10 miles , 16 km
2020/07/07 17:53 KSJC 071753Z VRB03KT 10SM CLR 22/07 A2998 RMK AO2 SLP150 T02170072 10222 20122 50000
KE16 - San Martin, California, USA
Distance from station: SW 169mi, 273km
Updated: Tue, 09-Jun-2020 1:20pm PDT
NOT Current
Clear
Clear
 Wind from NW
Wind: NW 10 mph , 17 km/h
Temperature: 86°F , 30°C
Dew Point: 36°F , 2°C
Humidity: 17%
Barometer: 30.13 inHg , 1020.3 hPa
Clouds: Clear
Visibility: 10 miles , 16 km
2020/06/09 20:20 KE16 092020Z AUTO 31009KT 290V350 10SM CLR 30/02 A3013 RMK AO2 PWINO PNO
 
KPAO - Palo Alto, California, USA
Distance from station: SW 169mi, 273km
Updated: Tue, 07-Jul-2020 10:47am PDT
Clear
Clear
 Wind from varies
Wind: varies 5 mph , 7 km/h
Temperature: 68°F , 20°C
Dew Point: 50°F , 10°C
Humidity: 53%
Barometer: 29.99 inHg , 1015.6 hPa
Clouds: Clear
Visibility: 10 miles , 16 km
2020/07/07 17:47 KPAO 071747Z VRB04KT 10SM SKC 20/10 A2999
KNUQ - Moffett Nas/Mtn, California, USA
Distance from station: SW 170mi, 273km
Updated: Tue, 07-Jul-2020 6:55am PDT
NOT Current
Clear
Clear
 Wind from ESE
Wind: ESE 5 mph , 7 km/h
Temperature: 57°F , 14°C
Dew Point: 50°F , 10°C
Humidity: 77%
Barometer: 29.98 inHg , 1015.2 hPa
Clouds: Clear
Visibility: 10 miles , 16 km
2020/07/07 13:55 KNUQ 071355Z AUTO 11004KT 10SM CLR 14/10 A2998 RMK AO2
 
KRDD - Redding, California, USA
Distance from station: NW 171mi, 275km
Updated: Tue, 07-Jul-2020 10:53am PDT
Clear
Clear
 Wind from NNW
Wind: NNW 10 mph , 17 km/h, Gust: 21 mph , 33 km/h
Temperature: 84°F , 29°C
Dew Point: 39°F , 4°C
Humidity: 20%
Barometer: 29.93 inHg , 1013.5 hPa
Clouds: Clear
Visibility: 10 miles , 16 km
2020/07/07 17:53 KRDD 071753Z 33009G18KT 10SM CLR 29/04 A2993 RMK AO2 SLP128 T02890039 10289 20150 56005
KSTS - Santa Rosa, California, USA
Distance from station: WSW 171mi, 275km
Updated: Tue, 07-Jul-2020 10:53am PDT
Clear
Clear
 Wind from S
Wind: S 5 mph , 7 km/h
Temperature: 73°F , 23°C
Dew Point: 46°F , 8°C
Humidity: 38%
Barometer: 29.96 inHg , 1014.6 hPa
Clouds: Clear
Visibility: 10 miles , 16 km
2020/07/07 17:53 KSTS 071753Z 18004KT 10SM CLR 23/08 A2996 RMK AO2 SLP140 T02280078 10228 20083 50003
 
KSQL - San Carlos Airpo, California, USA
Distance from station: SW 173mi, 278km
Updated: Tue, 07-Jul-2020 10:50am PDT
Clear
Clear
 Wind from N
Wind: N 8 mph , 13 km/h
Temperature: 66°F , 19°C
Dew Point: 55°F , 13°C
Humidity: 68%
Barometer: 30.00 inHg , 1015.9 hPa
Clouds: Clear
Visibility: 10 miles , 16 km
2020/07/07 17:50 KSQL 071750Z 01007KT 10SM SKC 19/13 A3000
KCVH - Hollister Muni, California, USA
Distance from station: SSW 174mi, 280km
Updated: Tue, 07-Jul-2020 11:40am PDT
Clear
Clear
 Wind from W
Wind: W 9 mph , 15 km/h
Temperature: 72°F , 22°C
Dew Point: 48°F , 9°C
Humidity: 44%
Barometer: 29.99 inHg , 1015.6 hPa
Clouds: Clear
Visibility: 10 miles , 16 km
2020/07/07 18:40 KCVH 071840Z AUTO 26008KT 10SM CLR 22/09 A2999 RMK A01
 
KSFO - San Francisco, California, USA
Distance from station: SW 174mi, 280km
Updated: Tue, 07-Jul-2020 10:56am PDT
Few Clouds
Few Clouds
 Wind from NNW
Wind: NNW 10 mph , 17 km/h
Temperature: 66°F , 19°C
Dew Point: 48°F , 9°C
Humidity: 52%
Barometer: 29.98 inHg , 1015.2 hPa
Clouds: Few Clouds
Visibility: 10 miles , 16 km
Cloud details: Few Clouds 900 ft
2020/07/07 17:56 KSFO 071756Z 33009KT 10SM FEW009 19/09 A2998 RMK AO2 SLP152 T01940089 10194 20111 50002
KAAT - Alturas, California, USA
Distance from station: NNW 175mi, 281km
Updated: Tue, 07-Jul-2020 10:55am PDT
Clear
Clear
 Wind from varies
Wind: varies 5 mph , 7 km/h
Temperature: 66°F , 19°C
Dew Point: 34°F , 1°C
Humidity: 30%
Barometer: 30.12 inHg , 1020 hPa
Clouds: Clear
Visibility: 10 miles , 16 km
2020/07/07 17:55 KAAT 071755Z AUTO VRB04KT 10SM CLR 19/01 A3012 RMK AO2 SLP162 T01890006 10189 20050 58004
 
KBAM - Battle Mtn (vor), Nevada, USA
Distance from station: NE 182mi, 294km
Updated: Tue, 07-Jul-2020 11:35am PDT
Clear
Clear
 Wind from N
Wind: N 9 mph , 15 km/h
Temperature: 81°F , 27°C
Dew Point: 30°F , -1°C
Humidity: 16%
Barometer: 30.04 inHg , 1017.3 hPa
Clouds: Clear
Visibility: 10 miles , 16 km
2020/07/07 18:35 KBAM 071835Z AUTO 36008KT 10SM CLR 27/M01 A3004 RMK AO1
KHAF - Half Moon Bay, California, USA
Distance from station: SW 184mi, 296km
Updated: Tue, 07-Jul-2020 10:55am PDT
Haze, Clear
Haze, Clear
 Wind from NW
Wind: NW 9 mph , 15 km/h
Temperature: 59°F , 15°C
Dew Point: 50°F , 10°C
Humidity: 72%
Barometer: 30.02 inHg , 1016.6 hPa
Summary: Haze
Clouds: Clear
Visibility: 6 miles , 10 km
2020/07/07 17:55 KHAF 071755Z AUTO 32008KT 6SM HZ CLR 15/10 A3002 RMK AO2
 
KWVI - Watsonville, California, USA
Distance from station: SW 184mi, 296km
Updated: Tue, 07-Jul-2020 10:53am PDT
Clear
Clear
 Wind from SSW
Wind: SSW 7 mph , 11 km/h
Temperature: 66°F , 19°C
Dew Point: 54°F , 12°C
Humidity: 64%
Barometer: 30.01 inHg , 1016.3 hPa
Clouds: Clear
Visibility: 10 miles , 16 km
2020/07/07 17:53 KWVI 071753Z AUTO 21006KT 10SM CLR 19/12 A3001 RMK AO2 SLP161 T01890117 10189 20117 50000
KUKI - Ukiah, California, USA
Distance from station: W 187mi, 300km
Updated: Tue, 07-Jul-2020 10:56am PDT
Clear
Clear
 Wind from varies
Wind: varies 5 mph , 7 km/h
Temperature: 73°F , 23°C
Dew Point: 43°F , 6°C
Humidity: 33%
Barometer: 29.99 inHg , 1015.6 hPa
Clouds: Clear
Visibility: 10 miles , 16 km
2020/07/07 17:56 KUKI 071756Z AUTO VRB04KT 10SM CLR 23/06 A2999 RMK AO2 SLP148 T02330061 10239 20111 58003
 
KHJO - Hanford, California, USA
Distance from station: S 188mi, 303km
Updated: Tue, 07-Jul-2020 10:53am PDT
Clear
Clear
 Wind from WNW
Wind: WNW 7 mph , 11 km/h
Temperature: 81°F , 27°C
Dew Point: 45°F , 7°C
Humidity: 28%
Barometer: 29.94 inHg , 1013.9 hPa
Clouds: Clear
Visibility: 10 miles , 16 km
2020/07/07 17:53 KHJO 071753Z AUTO 29006KT 10SM CLR 27/07 A2994 RMK AO2 SLP138 T02670067 10267 20156 50000
KNLC - Lemoore Nas/Reev, California, USA
Distance from station: S 188mi, 303km
Updated: Tue, 07-Jul-2020 10:56am PDT
Clear
Clear
 Wind from NW
Wind: NW 6 mph , 9 km/h
Temperature: 81°F , 27°C
Dew Point: 41°F , 5°C
Humidity: 24%
Barometer: 29.94 inHg , 1013.9 hPa
Clouds: Clear
Visibility: 10 miles , 16 km
2020/07/07 17:56 KNLC 071756Z 32005KT 10SM CLR 27/05 A2994 RMK AO2 SLP137 RH/24 T02720050 10272 20122 50001
 
KVIS - Visalia Muni, California, USA
Distance from station: S 189mi, 304km
Updated: Tue, 07-Jul-2020 10:56am PDT
Haze
Haze
 Wind from WSW
Wind: WSW 8 mph , 13 km/h
Temperature: 79°F , 26°C
Dew Point: 48°F , 9°C
Humidity: 34%
Barometer: 29.94 inHg , 1013.9 hPa
Summary: Haze
Visibility: 5 miles , 8 km
2020/07/07 17:56 KVIS 071756Z AUTO 25007KT 5SM HZ 26/09 A2994 RMK AO2 SLP142 T02560089 10256 20133 58001 $
KSNS - Salinas, California, USA
Distance from station: SSW 193mi, 311km
Updated: Tue, 07-Jul-2020 10:53am PDT
Clear
Clear
 Wind from NW
Wind: NW 15 mph , 24 km/h
Temperature: 64°F , 18°C
Dew Point: 50°F , 10°C
Humidity: 60%
Barometer: 30.01 inHg , 1016.3 hPa
Clouds: Clear
Visibility: 9 miles , 14 km
2020/07/07 17:53 KSNS 071753Z 31013KT 9SM CLR 18/10 A3001 RMK AO2 SLP171 T01830100 10183 20133 51002
 
K05U - Eureka, Nevada, USA
Distance from station: ENE 203mi, 326km
Updated: Tue, 07-Jul-2020 11:35am PDT
Clear
Clear
 Wind from varies
Wind: varies 5 mph , 7 km/h
Temperature: 79°F , 26°C
Dew Point: 12°F , -11°C
Humidity: 8%
Barometer: 30.12 inHg , 1020 hPa
Clouds: Clear
Visibility: 10 miles , 16 km
2020/07/07 18:35 K05U 071835Z AUTO VRB04KT 10SM CLR 26/M11 A3012 RMK A01
KP68 - Eureka, Nevada, USA
Distance from station: ENE 203mi, 326km
Updated: Tue, 07-Jul-2020 10:53am PDT

 Wind from ESE
Wind: ESE 7 mph , 11 km/h
Temperature: 75°F , 24°C
Dew Point: 19°F , -7°C
Humidity: 12%
Barometer: 30.10 inHg , 1019.3 hPa
2020/07/07 17:53 KP68 071753Z AUTO 11006KT 24/M07 A3010 RMK AO1 SLP110 T02391072 10244 20067 58002
 
KMRY - Monterey, California, USA
Distance from station: SW 206mi, 331km
Updated: Tue, 07-Jul-2020 10:54am PDT
Few Clouds
Few Clouds
 Wind from NW
Wind: NW 8 mph , 13 km/h
Temperature: 63°F , 17°C
Dew Point: 50°F , 10°C
Humidity: 64%
Barometer: 30.03 inHg , 1016.9 hPa
Clouds: Few Clouds
Visibility: 10 miles , 16 km
Cloud details: Few Clouds 1700 ft
2020/07/07 17:54 KMRY 071754Z 31007KT 10SM FEW017 17/10 A3003 RMK AO2 SLP180 T01720100 10178 20128 50002
KO54 - Weaverville, California, USA
Distance from station: NW 207mi, 332km
Updated: Tue, 07-Jul-2020 11:35am PDT
Clear
Clear
 Wind from calm
Wind: Calm
Temperature: 72°F , 22°C
Dew Point: 41°F , 5°C
Humidity: 33%
Barometer: 30.06 inHg , 1017.9 hPa
Clouds: Clear
Visibility: 10 miles , 16 km
2020/07/07 18:35 KO54 071835Z AUTO 00000KT 10SM CLR 22/05 A3006 RMK AO1
 
KO86 - Trinity Center, California, USA
Distance from station: NW 207mi, 333km
Updated: Tue, 07-Jul-2020 11:30am PDT
Clear
Clear
 Wind from SSE
Wind: SSE 9 mph , 15 km/h
Temperature: 73°F , 23°C
Dew Point: 45°F , 7°C
Humidity: 36%
Barometer: 30.04 inHg , 1017.3 hPa
Clouds: Clear
Visibility: 10 miles , 16 km
2020/07/07 18:30 KO86 071830Z AUTO 16008KT 10SM CLR 23/07 A3004 RMK AO1
KMHS - Mount Shasta, California, USA
Distance from station: NW 209mi, 336km
Updated: Tue, 07-Jul-2020 10:56am PDT
Clear
Clear
 Wind from varies
Wind: varies 3 mph , 6 km/h
Temperature: 66°F , 19°C
Dew Point: 39°F , 4°C
Humidity: 37%
Barometer: 30.11 inHg , 1019.6 hPa
Clouds: Clear
Visibility: 10 miles , 16 km
2020/07/07 17:56 KMHS 071756Z AUTO VRB03KT 10SM CLR 19/04 A3011 RMK AO2 SLP190 T01940039 10194 20089 51002
 
KPTV - Porterville, California, USA
Distance from station: S 212mi, 341km
Updated: Tue, 07-Jul-2020 10:56am PDT
Clear
Clear
 Wind from WNW
Wind: WNW 7 mph , 11 km/h
Temperature: 79°F , 26°C
Dew Point: 45°F , 7°C
Humidity: 30%
Barometer: 29.95 inHg , 1014.2 hPa
Clouds: Clear
Visibility: 10 miles , 16 km
2020/07/07 17:56 KPTV 071756Z AUTO 29006KT 10SM CLR 26/07 A2995 RMK AO2 SLP138 T02610067 10261 20139 58002
KLKV - Lakeview, Oregon, USA
Distance from station: N 219mi, 353km
Updated: Tue, 07-Jul-2020 10:53am PDT
Clear
Clear
 
Temperature: 63°F , 17°C
Dew Point: 34°F , 1°C
Humidity: 34%
Barometer: 30.13 inHg , 1020.3 hPa
Clouds: Clear
Visibility: 10 miles , 16 km
2020/07/07 17:53 KLKV 071753Z AUTO 10SM CLR 17/01 A3013 RMK AO2 SLP174 T01720006 10172 20000 50000 $
 
KSIY - Montague/Siskiyo, California, USA
Distance from station: NW 237mi, 382km
Updated: Tue, 07-Jul-2020 10:53am PDT
Clear
Clear
 
Temperature: 68°F , 20°C
Dew Point: 41°F , 5°C
Humidity: 38%
Barometer: 30.12 inHg , 1020 hPa
Clouds: Clear
Visibility: 10 miles , 16 km
2020/07/07 17:53 KSIY 071753Z AUTO 10SM CLR 20/05 A3012 RMK AO2 SLP193 T02000050 10200 20083 58006
KPRB - Paso Robles, California, USA
Distance from station: SSW 238mi, 383km
Updated: Tue, 07-Jul-2020 10:53am PDT
Clear
Clear
 Wind from varies
Wind: varies 5 mph , 7 km/h
Temperature: 72°F , 22°C
Dew Point: 46°F , 8°C
Humidity: 41%
Barometer: 29.97 inHg , 1014.9 hPa
Clouds: Clear
Visibility: 10 miles , 16 km
2020/07/07 17:53 KPRB 071753Z AUTO VRB04KT 10SM CLR 22/08 A2997 RMK AO2 SLP141 T02220078 10228 20094 58008
 
KLMT - Klamath Falls, Oregon, USA
Distance from station: NNW 239mi, 385km
Updated: Tue, 07-Jul-2020 10:53am PDT
Clear
Clear
 Wind from varies
Wind: varies 7 mph , 11 km/h
Temperature: 63°F , 17°C
Dew Point: 37°F , 3°C
Humidity: 39%
Barometer: 30.12 inHg , 1020 hPa
Clouds: Clear
Visibility: 10 miles , 16 km
2020/07/07 17:53 KLMT 071753Z VRB06KT 10SM CLR 17/03 A3012 RMK AO2 SLP172 T01720028 10172 20017 58004
KEKO - Elko, Nevada, USA
Distance from station: ENE 242mi, 390km
Updated: Tue, 07-Jul-2020 10:56am PDT
Clear
Clear
 Wind from W
Wind: W 16 mph , 26 km/h
Temperature: 79°F , 26°C
Dew Point: 27°F , -3°C
Humidity: 15%
Barometer: 30.06 inHg , 1017.9 hPa
Clouds: Clear
Visibility: 10 miles , 16 km
2020/07/07 17:56 KEKO 071756Z AUTO 27014KT 10SM CLR 26/M03 A3006 RMK AO2 SLP123 T02561028 10256 20111 52001
 
KBFL - Bakersfield, California, USA
Distance from station: S 252mi, 405km
Updated: Tue, 07-Jul-2020 10:54am PDT
Clear
Clear
 Wind from NW
Wind: NW 9 mph , 15 km/h
Temperature: 84°F , 29°C
Dew Point: 36°F , 2°C
Humidity: 18%
Barometer: 29.93 inHg , 1013.5 hPa
Clouds: Clear
Visibility: 10 miles , 16 km
2020/07/07 17:54 KBFL 071754Z 31008KT 10SM CLR 29/02 A2993 RMK AO2 SLP127 T02890022 10289 20194 58002
KFOT - Fortuna, California, USA
Distance from station: WNW 256mi, 413km
Updated: Tue, 07-Jul-2020 11:30am PDT
Clear
Clear
 Wind from NW
Wind: NW 15 mph , 24 km/h, Gust: 20 mph , 31 km/h
Temperature: 64°F , 18°C
Dew Point: 52°F , 11°C
Humidity: 64%
Barometer: 30.13 inHg , 1020.3 hPa
Clouds: Clear
Visibility: 10 miles , 16 km
2020/07/07 18:30 KFOT 071830Z AUTO 32013G17KT 10SM CLR 18/11 A3013 RMK AO1
 
KNID - China Lake (naf), California, USA
Distance from station: SSE 259mi, 417km
Updated: Tue, 07-Jul-2020 10:56am PDT
Clear
Clear
 Wind from SW
Wind: SW 12 mph , 19 km/h, Gust: 16 mph , 26 km/h
Temperature: 97°F , 36°C
Dew Point: 19°F , -7°C
Humidity: 6%
Barometer: 29.84 inHg , 1010.5 hPa
Clouds: Clear
Visibility: 10 miles , 16 km
2020/07/07 17:56 KNID 071756Z 23010G14KT 10SM CLR 36/M07 A2984 RMK AO2 SLP078 T03561067 10361 20239 58004 $
KDRA - Desert R/Mercury, Nevada, USA
Distance from station: SE 262mi, 421km
Updated: Tue, 07-Jul-2020 10:53am PDT
Clear
Clear
 Wind from SW
Wind: SW 20 mph , 31 km/h, Gust: 29 mph , 46 km/h
Temperature: 93°F , 34°C
Dew Point: 9°F , -13°C
Humidity: 4%
Barometer: 29.91 inHg , 1012.9 hPa
Clouds: Clear
Visibility: 10 miles , 16 km
2020/07/07 17:53 KDRA 071753Z AUTO 22017G25KT 10SM CLR 34/M13 A2991 RMK AO2 PK WND 21027/1659 SLP069 T03441128 10344 20222 51008
 
KELY - Ely, Nevada, USA
Distance from station: E 262mi, 421km
Updated: Tue, 07-Jul-2020 10:53am PDT
Clear
Clear
 Wind from WSW
Wind: WSW 14 mph , 22 km/h, Gust: 18 mph , 30 km/h
Temperature: 81°F , 27°C
Dew Point: 25°F , -4°C
Humidity: 13%
Barometer: 30.08 inHg , 1018.6 hPa
Clouds: Clear
Visibility: 10 miles , 16 km
2020/07/07 17:53 KELY 071753Z AUTO 25012G16KT 10SM CLR 27/M04 A3008 RMK AO2 SLP068 T02721044 10278 20094 55000
KREO - Rome, Oregon, USA
Distance from station: NNE 263mi, 424km
Updated: Tue, 07-Jul-2020 10:52am PDT

 Wind from W
Wind: W 15 mph , 24 km/h, Gust: 23 mph , 37 km/h
Temperature: 73°F , 23°C
Dew Point: 25°F , -4°C
Humidity: 16%
Barometer: 30.02 inHg , 1016.6 hPa
2020/07/07 17:52 KREO 071752Z AUTO 27013G20KT 23/M04 A3002 RMK AO1 SLP129 T02281039 10228 20161 50002
 
KACV - Arcata/Eureka, California, USA
Distance from station: WNW 268mi, 431km
Updated: Tue, 07-Jul-2020 10:53am PDT
Clear
Clear
 Wind from NNW
Wind: NNW 14 mph , 22 km/h
Temperature: 64°F , 18°C
Dew Point: 52°F , 11°C
Humidity: 64%
Barometer: 30.13 inHg , 1020.3 hPa
Clouds: Clear
Visibility: 10 miles , 16 km
2020/07/07 17:53 KACV 071753Z AUTO 33012KT 10SM CLR 18/11 A3013 RMK AO2 SLP207 T01830106 10189 20089 51005
KSBP - San Luis Obispo, California, USA
Distance from station: S 268mi, 431km
Updated: Tue, 07-Jul-2020 10:56am PDT
Clear
Clear
 Wind from NW
Wind: NW 16 mph , 26 km/h
Temperature: 73°F , 23°C
Dew Point: 50°F , 10°C
Humidity: 44%
Barometer: 29.94 inHg , 1013.9 hPa
Clouds: Clear
Visibility: 10 miles , 16 km
2020/07/07 17:56 KSBP 071756Z 31014KT 10SM CLR 23/10 A2994 RMK AO2 SLP135 T02330100 10233 20089 58005
 
KINS - Indian Springs, Nevada, USA
Distance from station: SE 279mi, 449km
Updated: Tue, 07-Jul-2020 10:58am PDT
Clear
Clear
 Wind from NNE
Wind: NNE 3 mph , 6 km/h
Temperature: 93°F , 34°C
Dew Point: 12°F , -11°C
Humidity: 5%
Barometer: 29.88 inHg , 1011.9 hPa
Clouds: Clear
Visibility: 10 miles , 16 km
2020/07/07 17:58 KINS 071758Z AUTO 02003KT 10SM CLR 34/M11 A2988 RMK AO2 SLP060 T03411109 10341 20196 51005 $
KTSP - Tehachapi, California, USA
Distance from station: SSE 279mi, 449km
Updated: Tue, 07-Jul-2020 11:35am PDT
Clear
Clear
 Wind from NNW
Wind: NNW 16 mph , 26 km/h
Temperature: 77°F , 25°C
Dew Point: 28°F , -2°C
Humidity: 17%
Barometer: 30.08 inHg , 1018.6 hPa
Clouds: Clear
Visibility: 10 miles , 16 km
2020/07/07 18:35 KTSP 071835Z AUTO 33014KT 10SM CLR 25/M02 A3008 RMK AO2
 
KMFR - Medford, Oregon, USA
Distance from station: NW 284mi, 457km
Updated: Tue, 07-Jul-2020 10:53am PDT
Partly cloudy
Partly cloudy
 Wind from varies
Wind: varies 3 mph , 6 km/h
Temperature: 66°F , 19°C
Dew Point: 46°F , 8°C
Humidity: 49%
Barometer: 30.14 inHg , 1020.7 hPa
Clouds: Partly cloudy
Visibility: 10 miles , 16 km
Cloud details: Partly cloudy 4100 ft
2020/07/07 17:53 KMFR 071753Z VRB03KT 10SM SCT041 19/08 A3014 RMK AO2 SLP202 T01940078 10194 20117 58001
KMHV - Mojave, California, USA
Distance from station: SSE 288mi, 463km
Updated: Tue, 07-Jul-2020 11:20am PDT
Clear
Clear
 Wind from WNW
Wind: WNW 20 mph , 31 km/h, Gust: 29 mph , 46 km/h
Temperature: 88°F , 31°C
Dew Point: 27°F , -3°C
Humidity: 11%
Barometer: 29.95 inHg , 1014.2 hPa
Clouds: Clear
Visibility: 10 miles , 16 km
2020/07/07 18:20 KMHV 071820Z AUTO 29017G25KT 10SM CLR 31/M03 A2995 RMK A01
 
KSMX - Santa Maria, California, USA
Distance from station: S 289mi, 465km
Updated: Tue, 07-Jul-2020 10:51am PDT
Clear
Clear
 Wind from WNW
Wind: WNW 13 mph , 20 km/h
Temperature: 66°F , 19°C
Dew Point: 50°F , 10°C
Humidity: 56%
Barometer: 29.96 inHg , 1014.6 hPa
Clouds: Clear
Visibility: 7 miles , 11 km
2020/07/07 17:51 KSMX 071751Z 30011KT 7SM CLR 19/10 A2996 RMK AO2 SLP147 T01940100 10194 20094 50000
K9L2 - Edwards N-Aux, California, USA
Distance from station: SSE 299mi, 482km
Updated: Tue, 07-Jul-2020 11:37am PDT
Clear
Clear
 Wind from SW
Wind: SW 13 mph , 20 km/h
Temperature: 93°F , 34°C
Dew Point: 21°F , -6°C
Humidity: 7%
Barometer: 29.91 inHg , 1012.9 hPa
Clouds: Clear
Visibility: 7 miles , 11 km
2020/07/07 18:37 K9L2 071837Z AUTO 23011KT 7SM CLR 34/M06 A2991 RMK AO2 WSHFT 34 SLP099
Honor Flight NV - Honoring all of our Veterans CoCoRaHS (Community Collaborative Rain, Hail and Snow Network) Station Number: NV-DG-2 Live Lightning Map - USA Reno Skywarn Spotter ID: DO21 AlertID Southwestern Weather Network Carson Valley Community Food Closet - providing for the needs of our community